createdAt,value
2022-10-31T00:01:15.759Z,98878.34
2022-10-31T00:03:42.626Z,98887.06
2022-10-31T00:06:09.229Z,98888.84
2022-10-31T00:08:35.940Z,98894.22
2022-10-31T00:11:02.883Z,98882.69
2022-10-31T00:13:29.673Z,98888.31
2022-10-31T00:15:56.348Z,98893.88
2022-10-31T00:18:22.941Z,98893.84
2022-10-31T00:20:49.600Z,98891.34
2022-10-31T00:23:16.228Z,98882.56
2022-10-31T00:25:42.911Z,98873.78
2022-10-31T00:28:11.979Z,98873.81
2022-10-31T00:30:38.819Z,98876.38
2022-10-31T00:33:06.202Z,98882.41
2022-10-31T00:35:33.287Z,98877.09
2022-10-31T00:38:00.875Z,98869.72
2022-10-31T00:40:27.783Z,98877.66
2022-10-31T00:42:54.436Z,98881.31
2022-10-31T00:45:21.140Z,98884.06
2022-10-31T00:47:48.027Z,98871.38
2022-10-31T00:50:14.830Z,98868.59
2022-10-31T00:52:41.581Z,98872.03
2022-10-31T00:55:08.354Z,98874.69
2022-10-31T00:57:34.992Z,98877.31
2022-10-31T01:00:04.277Z,98870.22
2022-10-31T01:02:31.140Z,98872.88
2022-10-31T01:04:58.246Z,98869.25
2022-10-31T01:07:25.195Z,98863.94
2022-10-31T01:09:51.905Z,98863.00
2022-10-31T01:12:19.898Z,98871.03
2022-10-31T01:14:46.664Z,98862.13
2022-10-31T01:17:14.233Z,98863.81
2022-10-31T01:19:41.316Z,98865.56
2022-10-31T01:22:08.065Z,98863.78
2022-10-31T01:24:35.105Z,98871.63
2022-10-31T01:27:02.690Z,98870.53
2022-10-31T01:29:33.098Z,98863.34
2022-10-31T01:31:59.815Z,98857.84
2022-10-31T01:34:26.766Z,98859.47
2022-10-31T01:36:54.493Z,98850.53
2022-10-31T01:39:23.529Z,98849.03
2022-10-31T01:41:53.436Z,98845.94
2022-10-31T01:44:20.016Z,98846.03
2022-10-31T01:46:52.604Z,98851.47
2022-10-31T01:49:39.976Z,98846.31
2022-10-31T01:52:28.075Z,98846.41
2022-10-31T01:55:12.832Z,98840.22
2022-10-31T01:57:42.518Z,98836.78
2022-10-31T02:00:11.576Z,98837.66
2022-10-31T02:02:41.431Z,98839.53
2022-10-31T02:05:13.320Z,98835.06
2022-10-31T02:07:49.110Z,98837.03
2022-10-31T02:10:16.393Z,98837.19
2022-10-31T02:12:44.620Z,98833.03
2022-10-31T02:15:11.367Z,98842.06
2022-10-31T02:17:38.235Z,98834.25
2022-10-31T02:20:14.094Z,98833.56
2022-10-31T02:23:06.856Z,98835.41
2022-10-31T02:26:09.110Z,98828.44
2022-10-31T02:28:59.894Z,98822.50
2022-10-31T02:31:55.796Z,98830.50
2022-10-31T02:34:35.425Z,98827.00
2022-10-31T02:37:14.514Z,98828.00
2022-10-31T02:39:54.680Z,98822.56
2022-10-31T02:42:54.254Z,98816.50
2022-10-31T02:45:24.010Z,98822.69
2022-10-31T02:47:54.495Z,98819.22
2022-10-31T02:50:28.094Z,98817.38
2022-10-31T02:52:54.724Z,98816.47
2022-10-31T02:55:26.188Z,98814.78
2022-10-31T02:58:12.797Z,98818.38
2022-10-31T03:00:53.737Z,98819.22
2022-10-31T03:03:36.318Z,98810.31
2022-10-31T03:06:09.891Z,98812.03
2022-10-31T03:09:05.755Z,98815.69
2022-10-31T03:11:45.654Z,98815.72
2022-10-31T03:15:10.007Z,98816.66
2022-10-31T03:17:54.710Z,98816.72
2022-10-31T03:20:30.944Z,98811.44
2022-10-31T03:22:59.708Z,98810.56
2022-10-31T03:25:27.084Z,98814.91
2022-10-31T03:27:59.111Z,98818.28
2022-10-31T03:30:26.219Z,98815.63
2022-10-31T03:33:00.629Z,98813.91
2022-10-31T03:35:31.242Z,98817.47
2022-10-31T03:38:05.433Z,98813.91
2022-10-31T03:40:37.703Z,98810.50
2022-10-31T03:43:10.246Z,98819.22
2022-10-31T03:45:42.972Z,98816.50
2022-10-31T03:48:09.961Z,98820.78
2022-10-31T03:50:46.669Z,98819.94
2022-10-31T03:53:23.528Z,98821.81
2022-10-31T03:56:00.944Z,98822.81
2022-10-31T03:58:44.272Z,98824.47
2022-10-31T04:01:17.108Z,98818.28
2022-10-31T04:03:45.450Z,98816.66
2022-10-31T04:06:17.677Z,98816.69
2022-10-31T04:09:00.540Z,98819.44
2022-10-31T04:11:31.908Z,98816.84
2022-10-31T04:14:17.294Z,98822.19
2022-10-31T04:16:45.632Z,98816.06
2022-10-31T04:19:13.445Z,98815.41
2022-10-31T04:21:40.872Z,98817.59
2022-10-31T04:24:07.968Z,98811.59
2022-10-31T04:26:34.688Z,98815.19
2022-10-31T04:29:01.490Z,98808.88
2022-10-31T04:31:28.720Z,98810.53
2022-10-31T04:33:55.432Z,98805.22
2022-10-31T04:36:22.076Z,98811.38
2022-10-31T04:38:48.824Z,98804.13
2022-10-31T04:41:29.783Z,98804.97
2022-10-31T04:44:01.353Z,98804.13
2022-10-31T04:46:28.214Z,98800.66
2022-10-31T04:48:57.547Z,98799.66
2022-10-31T04:51:24.573Z,98786.31
2022-10-31T04:53:51.867Z,98788.00
2022-10-31T04:56:37.127Z,98783.44
2022-10-31T04:59:10.887Z,98782.66
2022-10-31T05:01:55.479Z,98777.38
2022-10-31T05:04:39.007Z,98777.22
2022-10-31T05:07:05.703Z,98785.09
2022-10-31T05:09:32.407Z,98783.25
2022-10-31T05:11:59.058Z,98777.94
2022-10-31T05:14:47.648Z,98770.81
2022-10-31T05:17:34.345Z,98767.59
2022-10-31T05:20:24.207Z,98771.06
2022-10-31T05:23:14.006Z,98766.81
2022-10-31T05:25:42.037Z,98763.16
2022-10-31T05:28:08.925Z,98762.22
2022-10-31T05:30:36.174Z,98765.72
2022-10-31T05:33:04.539Z,98757.72
2022-10-31T05:35:51.531Z,98758.63
2022-10-31T05:38:29.702Z,98756.97
2022-10-31T05:41:02.840Z,98754.41
2022-10-31T05:43:31.992Z,98752.69
2022-10-31T05:45:59.618Z,98750.41
2022-10-31T05:48:46.271Z,98752.19
2022-10-31T05:51:41.928Z,98745.88
2022-10-31T05:54:12.059Z,98743.31
2022-10-31T05:56:43.927Z,98737.94
2022-10-31T05:59:10.579Z,98740.50
2022-10-31T06:01:37.378Z,98743.22
2022-10-31T06:04:07.872Z,98737.13
2022-10-31T06:06:36.356Z,98736.25
2022-10-31T06:09:03.164Z,98737.22
2022-10-31T06:11:33.350Z,98743.63
2022-10-31T06:14:02.748Z,98741.00
2022-10-31T06:16:40.709Z,98741.00
2022-10-31T06:19:33.593Z,98731.44
2022-10-31T06:22:00.247Z,98747.25
2022-10-31T06:24:28.065Z,98732.22
2022-10-31T06:26:54.742Z,98736.47
2022-10-31T06:29:22.068Z,98739.09
2022-10-31T06:32:01.655Z,98740.78
2022-10-31T06:34:29.712Z,98736.38
2022-10-31T06:36:56.427Z,98739.03
2022-10-31T06:39:25.401Z,98734.56
2022-10-31T06:41:53.552Z,98735.44
2022-10-31T06:44:21.918Z,98734.38
2022-10-31T06:46:54.235Z,98736.22
2022-10-31T06:49:35.895Z,98732.53
2022-10-31T06:52:08.131Z,98736.88
2022-10-31T06:54:35.224Z,98741.09
2022-10-31T06:57:03.100Z,98738.22
2022-10-31T06:59:29.994Z,98736.16
2022-10-31T07:02:12.303Z,98746.38
2022-10-31T07:04:40.395Z,98748.78
2022-10-31T07:07:07.937Z,98756.59
2022-10-31T07:09:35.986Z,98750.22
2022-10-31T07:12:04.613Z,98752.66
2022-10-31T07:14:34.113Z,98760.41
2022-10-31T07:17:01.620Z,98758.41
2022-10-31T07:19:41.072Z,98761.69
2022-10-31T07:22:08.645Z,98757.03
2022-10-31T07:24:36.127Z,98762.09
2022-10-31T07:27:42.968Z,98765.53
2022-10-31T07:30:13.487Z,98762.88
2022-10-31T07:32:42.004Z,98767.09
2022-10-31T07:35:10.557Z,98758.09
2022-10-31T07:37:46.899Z,98758.09
2022-10-31T07:40:14.912Z,98765.09
2022-10-31T07:42:52.551Z,98766.81
2022-10-31T07:45:37.741Z,98768.91
2022-10-31T07:48:23.162Z,98767.91
2022-10-31T07:51:08.399Z,98767.38
2022-10-31T07:53:53.485Z,98765.13
2022-10-31T07:56:25.585Z,98770.28
2022-10-31T07:58:52.704Z,98765.44
2022-10-31T08:01:19.353Z,98772.06
2022-10-31T08:03:58.881Z,98767.31
2022-10-31T08:07:03.640Z,98763.63
2022-10-31T08:09:34.898Z,98767.78
2022-10-31T08:12:06.615Z,98759.34
2022-10-31T08:14:34.552Z,98762.44
2022-10-31T08:17:01.596Z,98748.13
2022-10-31T08:19:37.021Z,98752.22
2022-10-31T08:22:03.936Z,98752.00
2022-10-31T08:24:30.684Z,98758.16
2022-10-31T08:26:58.750Z,98741.28
2022-10-31T08:29:25.612Z,98738.81
2022-10-31T08:31:52.284Z,98744.66
2022-10-31T08:34:37.388Z,98737.50
2022-10-31T08:37:22.487Z,98740.41
2022-10-31T08:39:53.513Z,98732.59
2022-10-31T08:42:21.475Z,98726.94
2022-10-31T08:44:48.180Z,98731.41
2022-10-31T08:47:14.823Z,98726.13
2022-10-31T08:49:41.497Z,98731.06
2022-10-31T08:52:12.014Z,98722.78
2022-10-31T08:54:41.450Z,98723.50
2022-10-31T08:57:37.157Z,98714.31
2022-10-31T09:00:05.274Z,98710.53
2022-10-31T09:03:11.776Z,98713.06
2022-10-31T09:05:38.776Z,98711.16
2022-10-31T09:08:16.013Z,98713.50
2022-10-31T09:10:45.059Z,98709.50
2022-10-31T09:13:17.993Z,98714.59
2022-10-31T09:16:03.428Z,98709.19
2022-10-31T09:18:33.010Z,98703.41
2022-10-31T09:21:01.770Z,98700.69
2022-10-31T09:23:30.845Z,98697.19
2022-10-31T09:26:00.884Z,98698.19
2022-10-31T09:28:27.681Z,98689.53
2022-10-31T09:30:58.266Z,98696.69
2022-10-31T09:33:44.962Z,98690.84
2022-10-31T09:36:41.012Z,98692.50
2022-10-31T09:39:22.843Z,98683.56
2022-10-31T09:42:03.399Z,98679.78
2022-10-31T09:44:49.024Z,98677.31
2022-10-31T09:47:41.761Z,98676.44
2022-10-31T09:50:43.394Z,98670.16
2022-10-31T09:53:43.604Z,98653.16
2022-10-31T09:56:18.682Z,98651.25
2022-10-31T09:58:56.284Z,98643.56
2022-10-31T10:01:35.213Z,98646.84
2022-10-31T10:04:28.315Z,98627.13
2022-10-31T10:07:05.366Z,98632.19
2022-10-31T10:09:44.906Z,98632.75
2022-10-31T10:13:01.158Z,98639.56
2022-10-31T10:15:37.174Z,98633.75
2022-10-31T10:18:25.737Z,98632.09
2022-10-31T10:21:23.521Z,98635.44
2022-10-31T10:24:18.162Z,98636.22
2022-10-31T10:26:55.930Z,98653.28
2022-10-31T10:29:28.685Z,98661.34
2022-10-31T10:31:58.957Z,98652.72
2022-10-31T10:34:38.197Z,98659.47
2022-10-31T10:37:22.951Z,98666.94
2022-10-31T10:39:57.197Z,98665.03
2022-10-31T10:42:46.467Z,98670.88
2022-10-31T10:45:37.928Z,98663.94
2022-10-31T10:48:12.773Z,98665.16
2022-10-31T10:50:48.916Z,98661.44
2022-10-31T10:53:32.769Z,98648.53
2022-10-31T10:56:04.162Z,98654.50
2022-10-31T10:58:31.208Z,98655.34
2022-10-31T11:00:57.998Z,98657.50
2022-10-31T11:03:24.698Z,98642.69
2022-10-31T11:05:53.681Z,98638.75
2022-10-31T11:08:34.597Z,98646.47
2022-10-31T11:11:12.082Z,98662.41
2022-10-31T11:13:42.521Z,98650.53
2022-10-31T11:16:41.162Z,98654.16
2022-10-31T11:19:24.583Z,98646.72
2022-10-31T11:21:54.313Z,98648.47
2022-10-31T11:24:27.139Z,98650.78
2022-10-31T11:27:10.623Z,98632.78
2022-10-31T11:29:37.781Z,98622.28
2022-10-31T11:32:04.718Z,98603.22
2022-10-31T11:34:38.249Z,98616.75
2022-10-31T11:37:15.050Z,98599.59
2022-10-31T11:39:44.577Z,98591.84
2022-10-31T11:42:12.397Z,98601.47
2022-10-31T11:44:43.520Z,98616.88
2022-10-31T11:47:17.089Z,98623.31
2022-10-31T11:49:47.129Z,98610.63
2022-10-31T11:52:27.049Z,98612.28
2022-10-31T11:54:59.281Z,98609.06
2022-10-31T11:57:30.682Z,98595.00
2022-10-31T12:00:04.505Z,98599.06
2022-10-31T12:02:38.848Z,98587.72
2022-10-31T12:05:12.419Z,98587.03
2022-10-31T12:07:39.033Z,98582.91
2022-10-31T12:10:12.708Z,98589.84
2022-10-31T12:12:44.236Z,98588.59
2022-10-31T12:15:29.268Z,98582.66
2022-10-31T12:18:12.076Z,98585.22
2022-10-31T12:20:48.574Z,98582.28
2022-10-31T12:23:30.672Z,98573.16
2022-10-31T12:26:08.186Z,98567.94
2022-10-31T12:28:45.404Z,98559.56
2022-10-31T12:31:29.062Z,98541.03
2022-10-31T12:34:34.398Z,98533.34
2022-10-31T12:37:16.568Z,98522.28
2022-10-31T12:40:22.437Z,98520.88
2022-10-31T12:43:19.854Z,98503.09
2022-10-31T12:46:00.190Z,98500.63
2022-10-31T12:48:46.004Z,98492.31
2022-10-31T12:51:12.641Z,98493.78
2022-10-31T12:54:05.876Z,98490.91
2022-10-31T12:56:51.071Z,98474.81
2022-10-31T12:59:41.493Z,98463.00
2022-10-31T13:02:14.471Z,98472.19
2022-10-31T13:04:59.155Z,98458.16
2022-10-31T13:07:42.188Z,98444.06
2022-10-31T13:10:19.388Z,98448.59
2022-10-31T13:12:50.082Z,98442.88
2022-10-31T13:15:23.540Z,98434.81
2022-10-31T13:17:55.349Z,98438.22
2022-10-31T13:20:28.111Z,98442.44
2022-10-31T13:23:17.607Z,98458.00
2022-10-31T13:25:55.015Z,98455.69
2022-10-31T13:28:45.969Z,98449.31
2022-10-31T13:31:12.958Z,98468.38
2022-10-31T13:33:58.336Z,98455.59
2022-10-31T13:36:55.574Z,98447.06
2022-10-31T13:39:57.588Z,98424.78
2022-10-31T13:42:41.731Z,98437.34
2022-10-31T13:45:20.027Z,98435.63
2022-10-31T13:48:19.630Z,98436.22
2022-10-31T13:51:01.008Z,98419.63
2022-10-31T13:53:36.548Z,98398.59
2022-10-31T13:56:14.734Z,98388.13
2022-10-31T13:59:03.332Z,98399.19
2022-10-31T14:01:31.049Z,98394.50
2022-10-31T14:04:11.030Z,98415.38
2022-10-31T14:07:13.200Z,98389.31
2022-10-31T14:09:51.586Z,98377.13
2022-10-31T14:12:32.540Z,98396.78
2022-10-31T14:15:13.702Z,98390.09
2022-10-31T14:17:48.410Z,98386.66
2022-10-31T14:20:15.099Z,98373.09
2022-10-31T14:22:43.164Z,98378.19
2022-10-31T14:25:45.233Z,98367.25
2022-10-31T14:28:35.859Z,98372.41
2022-10-31T14:31:02.836Z,98370.56
2022-10-31T14:33:31.270Z,98370.31
2022-10-31T14:36:24.703Z,98364.06
2022-10-31T14:38:56.924Z,98355.63
2022-10-31T14:42:14.791Z,98347.09
2022-10-31T14:44:44.180Z,98337.13
2022-10-31T14:47:19.750Z,98335.69
2022-10-31T14:50:25.424Z,98338.66
2022-10-31T14:52:56.989Z,98353.03
2022-10-31T14:55:25.335Z,98351.34
2022-10-31T14:57:56.838Z,98346.16
2022-10-31T15:00:25.378Z,98357.06
2022-10-31T15:03:07.014Z,98361.22
2022-10-31T15:05:42.078Z,98357.00
2022-10-31T15:08:46.764Z,98364.38
2022-10-31T15:11:19.836Z,98361.41
2022-10-31T15:13:50.782Z,98349.13
2022-10-31T15:16:22.048Z,98356.75
2022-10-31T15:18:52.967Z,98352.38
2022-10-31T15:21:21.479Z,98349.50
2022-10-31T15:23:49.595Z,98347.00
2022-10-31T15:26:22.912Z,98343.19
2022-10-31T15:29:05.584Z,98360.56
2022-10-31T15:31:33.207Z,98360.50
2022-10-31T15:34:06.351Z,98337.59
2022-10-31T15:36:38.260Z,98349.91
2022-10-31T15:39:05.641Z,98334.88
2022-10-31T15:41:44.084Z,98337.16
2022-10-31T15:44:20.667Z,98350.72
2022-10-31T15:46:58.469Z,98360.66
2022-10-31T15:49:41.719Z,98350.09
2022-10-31T15:52:45.283Z,98341.94
2022-10-31T15:55:21.970Z,98349.03
2022-10-31T15:57:52.058Z,98360.84
2022-10-31T16:00:25.991Z,98354.38
2022-10-31T16:03:15.401Z,98357.81
2022-10-31T16:05:48.045Z,98348.25
2022-10-31T16:08:24.610Z,98353.88
2022-10-31T16:10:51.312Z,98356.91
2022-10-31T16:13:18.829Z,98352.56
2022-10-31T16:16:03.775Z,98343.81
2022-10-31T16:18:43.298Z,98343.94
2022-10-31T16:21:11.553Z,98344.19
2022-10-31T16:23:44.484Z,98342.53
2022-10-31T16:26:17.795Z,98346.50
2022-10-31T16:29:03.231Z,98343.22
2022-10-31T16:31:39.186Z,98338.16
2022-10-31T16:34:14.170Z,98341.44
2022-10-31T16:36:41.065Z,98354.19
2022-10-31T16:39:08.331Z,98350.47
2022-10-31T16:41:43.038Z,98353.59
2022-10-31T16:44:27.925Z,98359.19
2022-10-31T16:47:15.488Z,98351.34
2022-10-31T16:49:44.079Z,98357.72
2022-10-31T16:52:10.891Z,98352.59
2022-10-31T16:54:38.141Z,98352.06
2022-10-31T16:57:06.263Z,98355.84
2022-10-31T16:59:34.823Z,98354.38
2022-10-31T17:02:03.784Z,98350.81
2022-10-31T17:04:30.636Z,98341.06
2022-10-31T17:06:57.298Z,98344.84
2022-10-31T17:09:24.010Z,98336.94
2022-10-31T17:11:53.823Z,98341.69
2022-10-31T17:14:20.694Z,98344.41
2022-10-31T17:16:47.434Z,98357.00
2022-10-31T17:19:14.420Z,98354.56
2022-10-31T17:21:41.493Z,98351.09
2022-10-31T17:24:13.473Z,98355.66
2022-10-31T17:26:40.326Z,98345.03
2022-10-31T17:29:07.044Z,98355.03
2022-10-31T17:31:36.656Z,98353.53
2022-10-31T17:34:05.168Z,98353.59
2022-10-31T17:36:35.398Z,98352.03
2022-10-31T17:39:05.308Z,98355.09
2022-10-31T17:41:32.039Z,98346.28
2022-10-31T17:43:59.666Z,98354.50
2022-10-31T17:46:28.294Z,98341.31
2022-10-31T17:48:55.073Z,98346.75
2022-10-31T17:51:21.856Z,98346.81
2022-10-31T17:53:48.528Z,98337.44
2022-10-31T17:56:15.157Z,98350.00
2022-10-31T17:58:41.918Z,98349.25
2022-10-31T18:01:10.930Z,98336.09
2022-10-31T18:03:38.627Z,98339.72
2022-10-31T18:06:05.949Z,98333.66
2022-10-31T18:08:36.373Z,98332.88
2022-10-31T18:11:15.830Z,98331.28
2022-10-31T18:13:42.617Z,98339.44
2022-10-31T18:16:11.191Z,98338.81
2022-10-31T18:18:38.020Z,98337.38
2022-10-31T18:21:05.055Z,98332.13
2022-10-31T18:23:31.702Z,98328.53
2022-10-31T18:25:58.429Z,98329.78
2022-10-31T18:28:25.323Z,98330.84
2022-10-31T18:30:52.029Z,98325.56
2022-10-31T18:33:18.750Z,98328.25
2022-10-31T18:35:46.158Z,98323.00
2022-10-31T18:38:12.800Z,98330.13
2022-10-31T18:40:39.445Z,98328.53
2022-10-31T18:43:06.104Z,98331.28
2022-10-31T18:45:46.044Z,98318.06
2022-10-31T18:48:14.639Z,98322.53
2022-10-31T18:50:42.217Z,98320.09
2022-10-31T18:53:09.152Z,98319.97
2022-10-31T18:55:41.534Z,98313.75
2022-10-31T18:58:10.993Z,98304.94
2022-10-31T19:00:38.577Z,98301.34
2022-10-31T19:03:06.111Z,98307.72
2022-10-31T19:05:32.921Z,98298.91
2022-10-31T19:07:59.562Z,98293.56
2022-10-31T19:10:26.289Z,98288.53
2022-10-31T19:12:52.920Z,98295.81
2022-10-31T19:15:19.615Z,98295.03
2022-10-31T19:17:46.548Z,98288.81
2022-10-31T19:20:14.039Z,98290.81
2022-10-31T19:22:40.804Z,98274.75
2022-10-31T19:25:10.464Z,98278.94
2022-10-31T19:27:38.401Z,98279.84
2022-10-31T19:30:06.295Z,98274.59
2022-10-31T19:32:33.165Z,98275.38
2022-10-31T19:34:59.885Z,98279.03
2022-10-31T19:37:26.552Z,98279.84
2022-10-31T19:39:53.168Z,98279.66
2022-10-31T19:42:19.951Z,98277.06
2022-10-31T19:44:46.591Z,98266.41
2022-10-31T19:47:13.565Z,98270.88
2022-10-31T19:49:40.206Z,98266.47
2022-10-31T19:52:06.915Z,98269.44
2022-10-31T19:54:33.529Z,98268.72
2022-10-31T19:57:00.203Z,98266.81
2022-10-31T19:59:26.885Z,98269.63
2022-10-31T20:01:53.682Z,98259.13
2022-10-31T20:04:20.444Z,98263.59
2022-10-31T20:06:47.258Z,98266.31
2022-10-31T20:09:14.643Z,98267.16
2022-10-31T20:11:43.206Z,98257.31
2022-10-31T20:14:12.716Z,98269.56
2022-10-31T20:16:39.831Z,98267.63
2022-10-31T20:19:06.661Z,98269.34
2022-10-31T20:21:39.605Z,98271.94
2022-10-31T20:24:08.441Z,98274.91
2022-10-31T20:26:35.561Z,98276.56
2022-10-31T20:29:03.658Z,98274.53
2022-10-31T20:31:35.107Z,98277.13
2022-10-31T20:34:02.458Z,98275.25
2022-10-31T20:36:30.743Z,98275.97
2022-10-31T20:38:58.558Z,98266.25
2022-10-31T20:41:25.429Z,98266.16
2022-10-31T20:43:52.644Z,98268.91
2022-10-31T20:46:26.647Z,98265.28
2022-10-31T20:48:54.437Z,98258.16
2022-10-31T20:51:24.744Z,98251.91
2022-10-31T20:53:52.585Z,98251.69
2022-10-31T20:56:21.309Z,98256.31
2022-10-31T20:58:48.763Z,98260.56
2022-10-31T21:01:21.199Z,98262.97
2022-10-31T21:03:48.343Z,98263.78
2022-10-31T21:06:18.173Z,98259.16
2022-10-31T21:08:45.586Z,98256.41
2022-10-31T21:11:18.590Z,98252.81
2022-10-31T21:13:46.516Z,98244.66
2022-10-31T21:16:28.221Z,98243.50
2022-10-31T21:18:55.236Z,98240.69
2022-10-31T21:21:28.980Z,98254.81
2022-10-31T21:24:01.802Z,98251.19
2022-10-31T21:26:31.024Z,98252.84
2022-10-31T21:28:58.815Z,98250.13
2022-10-31T21:31:26.443Z,98246.50
2022-10-31T21:33:53.099Z,98244.63
2022-10-31T21:36:20.169Z,98243.53
2022-10-31T21:38:54.033Z,98243.41
2022-10-31T21:41:21.531Z,98238.13
2022-10-31T21:43:50.123Z,98247.81
2022-10-31T21:46:19.269Z,98238.97
2022-10-31T21:48:46.340Z,98238.00
2022-10-31T21:51:16.302Z,98241.44
2022-10-31T21:54:01.688Z,98240.50
2022-10-31T21:56:28.463Z,98228.81
2022-10-31T21:58:55.837Z,98233.22
2022-10-31T22:01:25.630Z,98233.53
2022-10-31T22:03:52.801Z,98230.38
2022-10-31T22:06:19.923Z,98236.50
2022-10-31T22:08:47.321Z,98239.31
2022-10-31T22:11:16.483Z,98242.66
2022-10-31T22:13:45.467Z,98245.00
2022-10-31T22:16:17.779Z,98236.91
2022-10-31T22:18:45.379Z,98246.50
2022-10-31T22:21:14.512Z,98245.47
2022-10-31T22:23:42.231Z,98252.56
2022-10-31T22:26:14.347Z,98252.47
2022-10-31T22:28:42.796Z,98253.25
2022-10-31T22:33:44.965Z,98258.50
2022-10-31T22:36:13.828Z,98254.19
2022-10-31T22:38:41.096Z,98254.25
2022-10-31T22:41:09.937Z,98261.72
2022-10-31T22:43:37.123Z,98251.91
2022-10-31T22:46:06.276Z,98251.28
2022-10-31T22:48:41.763Z,98246.78
2022-10-31T22:51:17.295Z,98239.75
2022-10-31T22:53:44.528Z,98248.75
2022-10-31T22:56:14.591Z,98247.97
2022-10-31T22:58:41.575Z,98251.53
2022-10-31T23:01:10.876Z,98255.19
2022-10-31T23:03:37.917Z,98260.53
2022-10-31T23:06:06.438Z,98258.88
2022-10-31T23:08:36.476Z,98250.56
2022-10-31T23:11:13.969Z,98255.13
2022-10-31T23:13:59.355Z,98252.41
2022-10-31T23:16:26.111Z,98243.56
2022-10-31T23:18:52.799Z,98241.78
2022-10-31T23:21:38.133Z,98254.41
2022-10-31T23:24:04.982Z,98257.25
2022-10-31T23:26:50.378Z,98252.13
2022-10-31T23:29:17.004Z,98248.59
2022-10-31T23:31:43.649Z,98254.88
2022-10-31T23:34:10.415Z,98259.19
2022-10-31T23:36:37.148Z,98253.06
2022-10-31T23:39:03.907Z,98269.88
2022-10-31T23:41:30.620Z,98264.75
2022-10-31T23:43:57.262Z,98261.28
2022-10-31T23:46:23.947Z,98258.19
2022-10-31T23:48:50.757Z,98257.41
2022-10-31T23:51:17.509Z,98259.97
2022-10-31T23:53:45.451Z,98253.00
2022-10-31T23:56:13.040Z,98242.47
2022-10-31T23:58:40.132Z,98243.34
